createdAt,value
2019-02-06T00:01:40.776Z,22.70
2019-02-06T00:04:48.161Z,27.13
2019-02-06T00:07:52.463Z,25.30
2019-02-06T00:10:56.891Z,27.10
2019-02-06T00:14:01.173Z,25.23
2019-02-06T00:17:06.051Z,27.40
2019-02-06T00:20:10.733Z,27.63
2019-02-06T00:23:15.015Z,27.67
2019-02-06T00:26:19.341Z,28.17
2019-02-06T00:29:23.629Z,29.37
2019-02-06T00:32:27.941Z,29.23
2019-02-06T00:35:32.222Z,30.70
2019-02-06T00:38:36.677Z,29.47
2019-02-06T00:41:41.181Z,30.00
2019-02-06T00:44:45.463Z,30.13
2019-02-06T00:47:49.882Z,30.23
2019-02-06T00:50:54.459Z,31.00
2019-02-06T00:53:58.747Z,30.93
2019-02-06T00:57:06.026Z,31.27
2019-02-06T01:00:16.121Z,30.87
2019-02-06T01:03:20.593Z,31.43
2019-02-06T01:06:24.976Z,31.73
2019-02-06T01:09:29.251Z,31.80
2019-02-06T01:12:33.551Z,30.07
2019-02-06T01:15:37.825Z,33.63
2019-02-06T01:18:42.143Z,32.53
2019-02-06T01:21:46.607Z,34.43
2019-02-06T01:24:50.883Z,32.60
2019-02-06T01:27:55.195Z,33.97
2019-02-06T01:31:10.539Z,32.40
2019-02-06T01:34:14.834Z,34.03
2019-02-06T01:37:19.129Z,35.00
2019-02-06T01:40:27.503Z,33.97
2019-02-06T01:43:34.063Z,33.40
2019-02-06T01:46:38.557Z,36.67
2019-02-06T01:49:44.813Z,34.97
2019-02-06T01:52:49.551Z,33.53
2019-02-06T01:55:53.857Z,33.80
2019-02-06T01:58:58.323Z,37.27
2019-02-06T02:02:02.618Z,33.13
2019-02-06T02:05:07.138Z,34.77
2019-02-06T02:08:11.714Z,35.50
2019-02-06T02:11:16.178Z,37.47
2019-02-06T02:14:20.442Z,35.63
2019-02-06T02:17:25.004Z,35.80
2019-02-06T02:20:32.091Z,35.87
2019-02-06T02:23:36.367Z,34.27
2019-02-06T02:26:40.667Z,34.83
2019-02-06T02:29:46.750Z,34.27
2019-02-06T02:32:51.166Z,34.03
2019-02-06T02:35:55.713Z,36.00
2019-02-06T02:39:00.054Z,34.20
2019-02-06T02:42:04.350Z,34.43
2019-02-06T02:45:10.606Z,32.87
2019-02-06T02:48:14.935Z,34.77
2019-02-06T02:51:19.222Z,33.93
2019-02-06T02:54:23.785Z,33.27
2019-02-06T02:57:28.129Z,34.03
2019-02-06T03:00:51.872Z,33.67
2019-02-06T03:04:07.260Z,31.60
2019-02-06T03:07:11.641Z,33.20
2019-02-06T03:10:16.057Z,33.10
2019-02-06T03:13:20.488Z,32.87
2019-02-06T03:16:24.870Z,32.17
2019-02-06T03:19:29.150Z,31.80
2019-02-06T03:22:33.529Z,32.87
2019-02-06T03:25:37.899Z,31.50
2019-02-06T03:28:42.294Z,32.13
2019-02-06T03:31:46.588Z,32.00
2019-02-06T03:34:50.870Z,32.40
2019-02-06T03:37:56.049Z,32.23
2019-02-06T03:41:00.439Z,30.13
2019-02-06T03:44:04.992Z,33.10
2019-02-06T03:47:09.381Z,30.97
2019-02-06T03:50:15.779Z,31.93
2019-02-06T03:53:20.272Z,31.97
2019-02-06T03:56:24.815Z,31.40
2019-02-06T03:59:31.048Z,32.03
2019-02-06T04:02:35.425Z,31.17
2019-02-06T04:05:39.761Z,30.73
2019-02-06T04:08:44.047Z,32.53
2019-02-06T04:11:48.375Z,31.87
2019-02-06T04:14:52.659Z,30.83
2019-02-06T04:17:56.971Z,30.37
2019-02-06T04:21:01.485Z,30.90
2019-02-06T04:24:05.997Z,32.43
2019-02-06T04:27:10.317Z,32.10
2019-02-06T04:30:15.473Z,31.20
2019-02-06T04:33:21.306Z,30.93
2019-02-06T04:36:25.669Z,30.70
2019-02-06T04:39:29.963Z,29.90
2019-02-06T04:42:36.788Z,30.87
2019-02-06T04:45:41.459Z,30.40
2019-02-06T04:48:45.723Z,31.93
2019-02-06T04:51:50.183Z,31.20
2019-02-06T04:54:54.868Z,29.87
2019-02-06T04:57:59.165Z,30.30
2019-02-06T05:01:03.610Z,31.47
2019-02-06T05:04:08.469Z,30.47
2019-02-06T05:07:19.447Z,30.87
2019-02-06T05:10:21.719Z,29.13
2019-02-06T05:13:26.013Z,28.37
2019-02-06T05:16:30.551Z,31.00
2019-02-06T05:19:34.837Z,30.53
2019-02-06T05:22:39.150Z,31.10
2019-02-06T05:25:43.550Z,32.07
2019-02-06T05:28:47.830Z,32.43
2019-02-06T05:31:52.160Z,32.40
2019-02-06T05:34:57.536Z,32.57
2019-02-06T05:38:01.996Z,33.60
2019-02-06T05:41:07.328Z,32.93
2019-02-06T05:44:11.619Z,35.27
2019-02-06T05:47:17.032Z,33.23
2019-02-06T05:50:21.437Z,30.37
2019-02-06T05:53:25.909Z,36.30
2019-02-06T05:56:30.274Z,34.27
2019-02-06T05:59:34.688Z,33.97
2019-02-06T06:02:39.055Z,34.20
2019-02-06T06:05:43.447Z,35.80
2019-02-06T06:08:47.804Z,34.13
2019-02-06T06:11:52.111Z,36.33
2019-02-06T06:14:56.481Z,37.40
2019-02-06T06:18:00.960Z,36.30
2019-02-06T06:21:05.247Z,36.43
2019-02-06T06:24:09.541Z,34.70
2019-02-06T06:27:14.133Z,35.37
2019-02-06T06:30:19.535Z,37.83
2019-02-06T06:33:23.840Z,38.37
2019-02-06T06:36:28.290Z,39.23
2019-02-06T06:39:32.578Z,36.70
2019-02-06T06:42:36.941Z,36.97
2019-02-06T06:45:41.815Z,38.17
2019-02-06T06:48:49.083Z,34.80
2019-02-06T06:51:53.473Z,39.10
2019-02-06T06:54:57.785Z,39.83
2019-02-06T06:58:02.067Z,38.67
2019-02-06T07:01:06.364Z,39.73
2019-02-06T07:04:10.693Z,39.13
2019-02-06T07:07:17.778Z,38.43
2019-02-06T07:10:22.097Z,38.77
2019-02-06T07:13:26.381Z,37.30
2019-02-06T07:16:33.677Z,38.80
2019-02-06T07:19:38.027Z,37.70
2019-02-06T07:22:42.333Z,37.00
2019-02-06T07:25:46.653Z,37.73
2019-02-06T07:28:51.173Z,40.03
2019-02-06T07:31:55.593Z,39.13
2019-02-06T07:34:59.927Z,36.60
2019-02-06T07:38:06.074Z,40.20
2019-02-06T07:41:10.556Z,40.67
2019-02-06T07:44:14.846Z,40.27
2019-02-06T07:47:19.253Z,40.00
2019-02-06T07:50:26.049Z,38.93
2019-02-06T07:53:30.829Z,39.53
2019-02-06T07:56:35.245Z,40.33
2019-02-06T07:59:39.535Z,38.70
2019-02-06T08:02:44.415Z,41.13
2019-02-06T08:05:48.982Z,40.87
2019-02-06T08:08:53.473Z,38.93
2019-02-06T08:11:58.241Z,42.27
2019-02-06T08:15:02.817Z,37.73
2019-02-06T08:18:07.772Z,36.10
2019-02-06T08:21:15.133Z,36.17
2019-02-06T08:24:19.545Z,37.30
2019-02-06T08:27:26.310Z,36.63
2019-02-06T08:30:35.320Z,39.00
2019-02-06T08:33:39.711Z,37.90
2019-02-06T08:36:44.021Z,43.27
2019-02-06T08:39:48.304Z,37.03
2019-02-06T08:42:52.809Z,38.57
2019-02-06T08:45:57.177Z,37.63
2019-02-06T08:49:04.071Z,38.17
2019-02-06T08:52:08.393Z,38.13
2019-02-06T08:55:15.695Z,38.37
2019-02-06T08:58:20.088Z,37.13
2019-02-06T09:01:24.762Z,35.40
2019-02-06T09:04:29.153Z,37.93
2019-02-06T09:07:33.430Z,37.60
2019-02-06T09:10:38.277Z,37.03
2019-02-06T09:13:42.554Z,38.07
2019-02-06T09:16:46.850Z,37.00
2019-02-06T09:19:51.435Z,39.00
2019-02-06T09:22:56.651Z,38.03
2019-02-06T09:26:01.159Z,36.97
2019-02-06T09:29:06.013Z,36.93
2019-02-06T09:32:10.525Z,37.70
2019-02-06T09:35:15.149Z,36.10
2019-02-06T09:38:22.595Z,36.07
2019-02-06T09:41:26.891Z,37.27
2019-02-06T09:44:31.181Z,34.43
2019-02-06T09:47:35.515Z,35.10
2019-02-06T09:50:39.838Z,35.10
2019-02-06T09:53:44.207Z,32.60
2019-02-06T09:56:50.637Z,32.33
2019-02-06T09:59:54.515Z,31.40
2019-02-06T10:02:58.823Z,32.93
2019-02-06T10:06:03.159Z,34.97
2019-02-06T10:09:09.346Z,32.93
2019-02-06T10:12:13.629Z,30.70
2019-02-06T10:15:20.730Z,30.63
2019-02-06T10:18:28.275Z,31.30
2019-02-06T10:21:32.669Z,27.67
2019-02-06T10:24:37.107Z,31.00
2019-02-06T10:27:41.413Z,28.03
2019-02-06T10:30:47.980Z,28.57
2019-02-06T10:33:52.381Z,28.80
2019-02-06T10:36:56.737Z,27.07
2019-02-06T10:40:01.133Z,28.07
2019-02-06T10:43:06.017Z,27.13
2019-02-06T10:46:10.790Z,25.33
2019-02-06T10:49:15.345Z,28.00
2019-02-06T10:52:19.646Z,25.17
2019-02-06T10:55:24.243Z,25.17
2019-02-06T10:58:28.758Z,25.50
2019-02-06T11:01:33.153Z,23.43
2019-02-06T11:04:37.957Z,26.27
2019-02-06T11:07:42.267Z,25.53
2019-02-06T11:10:46.948Z,23.67
2019-02-06T11:13:51.636Z,25.13
2019-02-06T11:16:57.193Z,22.67
2019-02-06T11:20:01.512Z,22.10
2019-02-06T11:23:07.440Z,22.23
2019-02-06T11:26:11.838Z,23.53
2019-02-06T11:29:16.149Z,22.23
2019-02-06T11:32:20.432Z,23.60
2019-02-06T11:35:24.710Z,23.13
2019-02-06T11:38:32.073Z,24.30
2019-02-06T11:41:36.566Z,21.67
2019-02-06T11:44:40.865Z,21.57
2019-02-06T11:47:50.186Z,21.93
2019-02-06T11:50:54.532Z,19.47
2019-02-06T11:53:58.857Z,21.50
2019-02-06T11:57:03.159Z,18.47
2019-02-06T12:00:13.991Z,19.43
2019-02-06T12:03:22.041Z,20.17
2019-02-06T12:06:24.971Z,17.87
2019-02-06T12:09:29.267Z,20.03
2019-02-06T12:12:33.965Z,19.53
2019-02-06T12:15:38.234Z,20.40
2019-02-06T12:18:42.525Z,19.47
2019-02-06T12:21:47.382Z,18.53
2019-02-06T12:24:51.654Z,17.93
2019-02-06T12:27:56.263Z,17.50
2019-02-06T12:31:01.151Z,17.57
2019-02-06T12:34:05.451Z,18.43
2019-02-06T12:37:09.744Z,17.23
2019-02-06T12:40:21.550Z,17.43
2019-02-06T12:43:20.639Z,15.67
2019-02-06T12:46:24.979Z,16.13
2019-02-06T12:49:29.266Z,16.40
2019-02-06T12:52:33.555Z,17.47
2019-02-06T12:55:39.003Z,14.17
2019-02-06T12:58:43.321Z,15.57
2019-02-06T13:01:47.648Z,14.10
2019-02-06T13:04:51.955Z,14.27
2019-02-06T13:07:56.347Z,14.33
2019-02-06T13:11:00.680Z,14.47
2019-02-06T13:14:05.263Z,13.90
2019-02-06T13:17:09.590Z,13.53
2019-02-06T13:20:16.880Z,12.83
2019-02-06T13:23:21.242Z,13.83
2019-02-06T13:26:25.564Z,12.60
2019-02-06T13:29:29.909Z,12.70
2019-02-06T13:32:34.218Z,13.00
2019-02-06T13:35:41.164Z,12.27
2019-02-06T13:38:45.456Z,11.07
2019-02-06T13:41:50.018Z,10.63
2019-02-06T13:44:57.685Z,10.10
2019-02-06T13:48:01.945Z,9.83
2019-02-06T13:51:16.288Z,10.33
2019-02-06T13:54:12.664Z,10.43
2019-02-06T13:57:18.244Z,10.20
2019-02-06T14:00:26.388Z,9.57
2019-02-06T14:03:30.787Z,9.00
2019-02-06T14:06:35.236Z,9.33
2019-02-06T14:09:39.493Z,9.37
2019-02-06T14:12:43.770Z,8.53
2019-02-06T14:15:50.707Z,9.20
2019-02-06T14:18:55.019Z,8.83
2019-02-06T14:21:59.441Z,9.50
2019-02-06T14:25:56.848Z,9.50
2019-02-06T14:29:53.374Z,9.20
2019-02-06T14:33:41.238Z,9.93
2019-02-06T14:37:02.097Z,8.90
2019-02-06T14:40:16.323Z,8.77
2019-02-06T14:44:06.595Z,8.70
2019-02-06T14:47:57.638Z,9.27
2019-02-06T14:51:44.605Z,8.50
2019-02-06T14:55:11.161Z,8.63
2019-02-06T14:58:50.620Z,9.07
2019-02-06T15:02:45.047Z,8.97
2019-02-06T15:06:39.163Z,8.43
2019-02-06T15:10:27.127Z,8.60
2019-02-06T15:13:59.931Z,9.83
2019-02-06T15:17:36.910Z,9.40
2019-02-06T15:21:18.944Z,8.77
2019-02-06T15:24:58.057Z,9.23
2019-02-06T15:28:33.035Z,11.13
2019-02-06T15:32:20.254Z,11.00
2019-02-06T15:35:57.665Z,10.77
2019-02-06T15:39:40.684Z,12.63
2019-02-06T15:43:02.835Z,11.93
2019-02-06T15:46:42.729Z,13.17
2019-02-06T15:50:03.330Z,14.83
2019-02-06T15:53:24.276Z,15.20
2019-02-06T15:57:10.664Z,15.67
2019-02-06T16:00:48.144Z,17.73
2019-02-06T16:04:26.622Z,18.03
2019-02-06T16:08:16.572Z,20.17
2019-02-06T16:11:48.284Z,18.17
2019-02-06T16:15:40.725Z,20.90
2019-02-06T16:19:07.236Z,21.37
2019-02-06T16:22:39.917Z,21.33
2019-02-06T16:26:20.991Z,20.10
2019-02-06T16:30:24.503Z,22.47
2019-02-06T16:33:57.545Z,23.90
2019-02-06T16:37:22.367Z,21.90
2019-02-06T16:40:58.704Z,21.23
2019-02-06T16:44:29.602Z,22.03
2019-02-06T16:48:02.945Z,22.60
2019-02-06T16:51:21.289Z,22.23
2019-02-06T16:55:15.838Z,21.20
2019-02-06T16:59:09.764Z,20.93
2019-02-06T17:03:05.383Z,20.37
2019-02-06T17:06:56.784Z,17.87
2019-02-06T17:10:44.414Z,19.30
2019-02-06T17:14:11.918Z,18.23
2019-02-06T17:17:29.730Z,18.87
2019-02-06T17:21:13.312Z,18.97
2019-02-06T17:24:54.361Z,17.47
2019-02-06T17:28:47.992Z,18.93
2019-02-06T17:32:30.310Z,20.33
2019-02-06T17:36:04.629Z,19.13
2019-02-06T17:39:42.722Z,19.70
2019-02-06T17:43:06.249Z,20.77
2019-02-06T17:46:28.115Z,22.30
2019-02-06T17:50:19.851Z,22.20
2019-02-06T17:54:04.944Z,21.27
2019-02-06T17:57:14.583Z,22.37
2019-02-06T18:00:28.276Z,22.33
2019-02-06T18:03:36.455Z,22.40
2019-02-06T18:06:41.073Z,21.50
2019-02-06T18:09:45.415Z,22.93
2019-02-06T18:12:49.717Z,22.40
2019-02-06T18:15:54.204Z,23.37
2019-02-06T18:18:58.995Z,20.60
2019-02-06T18:22:03.470Z,21.77
2019-02-06T18:25:08.148Z,23.63
2019-02-06T18:28:12.977Z,22.13
2019-02-06T18:31:17.459Z,22.47
2019-02-06T18:34:21.781Z,23.73
2019-02-06T18:37:26.280Z,21.57
2019-02-06T18:40:30.780Z,23.20
2019-02-06T18:43:37.803Z,22.37
2019-02-06T18:46:42.214Z,21.73
2019-02-06T18:49:46.572Z,24.80
2019-02-06T18:52:51.164Z,23.23
2019-02-06T18:55:55.626Z,24.10
2019-02-06T18:59:00.131Z,23.90
2019-02-06T19:02:04.974Z,23.50
2019-02-06T19:05:11.032Z,25.37
2019-02-06T19:08:15.649Z,24.23
2019-02-06T19:11:20.124Z,24.20
2019-02-06T19:14:24.490Z,22.37
2019-02-06T19:17:28.857Z,23.00
2019-02-06T19:20:35.672Z,21.63
2019-02-06T19:23:39.260Z,20.27
2019-02-06T19:26:43.955Z,23.10
2019-02-06T19:29:48.351Z,21.87
2019-02-06T19:32:52.914Z,22.60
2019-02-06T19:35:57.272Z,22.67
2019-02-06T19:39:01.934Z,22.17
2019-02-06T19:42:06.616Z,23.53
2019-02-06T19:45:11.713Z,22.10
2019-02-06T19:48:18.975Z,23.80
2019-02-06T19:51:22.521Z,24.20
2019-02-06T19:54:26.921Z,24.30
2019-02-06T19:57:31.444Z,22.80
2019-02-06T20:00:37.565Z,23.60
2019-02-06T20:03:42.448Z,21.87
2019-02-06T20:06:47.121Z,21.83
2019-02-06T20:09:51.923Z,22.00
2019-02-06T20:12:56.958Z,24.00
2019-02-06T20:16:01.503Z,22.63
2019-02-06T20:19:06.255Z,21.07
2019-02-06T20:22:11.092Z,23.63
2019-02-06T20:25:16.212Z,22.17
2019-02-06T20:28:20.824Z,23.00
2019-02-06T20:31:25.904Z,24.23
2019-02-06T20:34:30.768Z,24.80
2019-02-06T20:37:35.510Z,24.90
2019-02-06T20:40:40.271Z,26.17
2019-02-06T20:43:45.168Z,25.00
2019-02-06T20:46:52.275Z,25.50
2019-02-06T20:49:56.855Z,27.87
2019-02-06T20:53:01.535Z,25.57
2019-02-06T20:56:06.279Z,28.00
2019-02-06T20:59:10.882Z,25.17
2019-02-06T21:02:15.439Z,25.60
2019-02-06T21:05:20.194Z,28.37
2019-02-06T21:08:24.719Z,27.47
2019-02-06T21:11:29.273Z,26.10
2019-02-06T21:14:33.789Z,26.60
2019-02-06T21:17:38.261Z,25.90
2019-02-06T21:20:42.860Z,27.23
2019-02-06T21:23:47.199Z,25.23
2019-02-06T21:26:51.598Z,28.20
2019-02-06T21:29:55.906Z,28.47
2019-02-06T21:33:00.346Z,26.20
2019-02-06T21:36:04.873Z,27.40
2019-02-06T21:39:10.374Z,27.37
2019-02-06T21:42:14.720Z,27.97
2019-02-06T21:45:19.369Z,28.03
2019-02-06T21:48:23.759Z,28.43
2019-02-06T21:51:28.051Z,28.37
2019-02-06T21:54:32.734Z,27.47
2019-02-06T21:57:37.012Z,30.17
2019-02-06T22:00:42.529Z,27.27
2019-02-06T22:03:46.840Z,28.30
2019-02-06T22:06:51.134Z,27.57
2019-02-06T22:09:56.403Z,28.73
2019-02-06T22:13:01.240Z,25.80
2019-02-06T22:16:05.783Z,26.30
2019-02-06T22:19:10.091Z,25.63
2019-02-06T22:22:14.555Z,25.27
2019-02-06T22:25:18.910Z,23.77
2019-02-06T22:28:23.203Z,24.27
2019-02-06T22:31:27.510Z,23.20
2019-02-06T22:34:32.186Z,23.47
2019-02-06T22:37:36.596Z,23.13
2019-02-06T22:40:40.946Z,21.47
2019-02-06T22:43:45.262Z,22.17
2019-02-06T22:46:49.563Z,19.03
2019-02-06T22:49:53.988Z,19.73
2019-02-06T22:52:58.383Z,19.03
2019-02-06T22:56:02.704Z,18.90
2019-02-06T22:59:07.011Z,13.10
2019-02-06T23:02:14.286Z,17.73
2019-02-06T23:05:18.644Z,17.43
2019-02-06T23:08:22.950Z,18.07
2019-02-06T23:11:27.436Z,16.50
2019-02-06T23:14:31.723Z,16.20
2019-02-06T23:17:36.030Z,18.33
2019-02-06T23:20:41.327Z,17.17
2019-02-06T23:23:46.582Z,17.83
2019-02-06T23:26:51.210Z,17.07
2019-02-06T23:29:55.902Z,17.93
2019-02-06T23:33:00.282Z,16.40
2019-02-06T23:36:05.228Z,16.70
2019-02-06T23:39:15.828Z,17.17
2019-02-06T23:42:20.260Z,19.20
2019-02-06T23:45:24.620Z,18.10
2019-02-06T23:48:28.917Z,18.27
2019-02-06T23:51:33.328Z,18.03
2019-02-06T23:54:37.731Z,19.60
2019-02-06T23:57:42.129Z,19.47
